createdAt,value
2019-03-27T00:01:03.923Z,48.73
2019-03-27T00:04:01.058Z,48.53
2019-03-27T00:06:58.181Z,42.40
2019-03-27T00:09:54.336Z,40.80
2019-03-27T00:12:51.863Z,50.17
2019-03-27T00:15:47.824Z,45.17
2019-03-27T00:18:45.009Z,41.30
2019-03-27T00:21:41.100Z,52.13
2019-03-27T00:24:38.453Z,38.60
2019-03-27T00:27:35.922Z,40.83
2019-03-27T00:30:32.350Z,38.60
2019-03-27T00:33:37.597Z,40.30
2019-03-27T00:36:33.716Z,40.07
2019-03-27T00:39:30.799Z,42.10
2019-03-27T00:42:27.978Z,39.33
2019-03-27T00:45:27.255Z,43.37
2019-03-27T00:48:23.304Z,44.63
2019-03-27T00:51:19.585Z,39.73
2019-03-27T00:54:17.525Z,39.13
2019-03-27T00:57:14.640Z,38.83
2019-03-27T01:00:11.879Z,39.57
2019-03-27T01:03:09.002Z,40.23
2019-03-27T01:06:06.383Z,42.63
2019-03-27T01:09:05.980Z,44.37
2019-03-27T01:12:03.334Z,41.90
2019-03-27T01:15:00.390Z,40.47
2019-03-27T01:17:56.449Z,37.83
2019-03-27T01:20:53.577Z,39.37
2019-03-27T01:23:50.517Z,37.57
2019-03-27T01:26:47.878Z,47.77
2019-03-27T01:29:43.906Z,37.80
2019-03-27T01:32:41.226Z,43.73
2019-03-27T01:35:38.314Z,48.43
2019-03-27T01:38:34.444Z,41.00
2019-03-27T01:41:31.766Z,42.80
2019-03-27T01:44:28.876Z,40.37
2019-03-27T01:47:26.099Z,42.93
2019-03-27T01:50:21.443Z,38.70
2019-03-27T01:53:19.412Z,41.17
2019-03-27T01:56:17.187Z,39.57
2019-03-27T01:59:14.619Z,39.70
2019-03-27T02:02:11.689Z,43.30
2019-03-27T02:05:09.028Z,49.40
2019-03-27T02:08:05.848Z,45.87
2019-03-27T02:11:01.745Z,45.20
2019-03-27T02:13:59.892Z,50.20
2019-03-27T02:16:56.235Z,45.97
2019-03-27T02:19:52.073Z,44.83
2019-03-27T02:22:49.596Z,39.83
2019-03-27T02:25:45.633Z,45.63
2019-03-27T02:28:43.009Z,43.80
2019-03-27T02:31:39.120Z,50.23
2019-03-27T02:34:36.277Z,40.92
2019-03-27T02:37:32.422Z,46.70
2019-03-27T02:40:29.663Z,47.70
2019-03-27T02:43:25.896Z,39.70
2019-03-27T02:46:24.883Z,47.37
2019-03-27T02:49:20.590Z,44.63
2019-03-27T02:52:16.948Z,46.90
2019-03-27T02:55:15.272Z,46.57
2019-03-27T02:58:12.119Z,45.47
2019-03-27T03:01:10.204Z,50.57
2019-03-27T03:04:08.278Z,46.83
2019-03-27T03:07:04.938Z,40.87
2019-03-27T03:10:01.209Z,45.05
2019-03-27T03:12:57.817Z,43.37
2019-03-27T03:15:55.722Z,47.13
2019-03-27T03:18:53.137Z,46.63
2019-03-27T03:21:50.218Z,44.07
2019-03-27T03:24:47.269Z,44.23
2019-03-27T03:27:44.532Z,45.10
2019-03-27T03:30:40.185Z,49.00
2019-03-27T03:33:37.201Z,44.30
2019-03-27T03:36:35.422Z,46.47
2019-03-27T03:39:31.145Z,48.90
2019-03-27T03:42:27.885Z,46.73
2019-03-27T03:45:24.526Z,54.43
2019-03-27T03:48:21.438Z,48.13
2019-03-27T03:51:17.498Z,44.03
2019-03-27T03:54:14.713Z,50.30
2019-03-27T03:57:11.776Z,47.20
2019-03-27T04:00:08.010Z,49.13
2019-03-27T04:03:06.149Z,50.95
2019-03-27T04:06:04.269Z,48.77
2019-03-27T04:09:01.418Z,43.07
2019-03-27T04:11:56.937Z,44.70
2019-03-27T04:14:53.992Z,52.23
2019-03-27T04:17:50.090Z,50.47
2019-03-27T04:20:47.447Z,49.70
2019-03-27T04:23:43.776Z,45.37
2019-03-27T04:26:41.842Z,48.90
2019-03-27T04:29:37.726Z,48.10
2019-03-27T04:32:34.739Z,52.13
2019-03-27T04:35:32.065Z,46.83
2019-03-27T04:38:28.189Z,53.23
2019-03-27T04:41:25.368Z,51.92
2019-03-27T04:44:21.701Z,49.40
2019-03-27T04:47:31.516Z,50.13
2019-03-27T04:50:15.742Z,54.40
2019-03-27T04:53:12.446Z,51.73
2019-03-27T04:56:08.541Z,52.27
2019-03-27T04:59:06.338Z,50.00
2019-03-27T05:02:02.671Z,51.20
2019-03-27T05:04:59.912Z,50.77
2019-03-27T05:07:57.153Z,54.97
2019-03-27T05:10:53.096Z,51.60
2019-03-27T05:13:50.242Z,48.73
2019-03-27T05:16:47.318Z,53.10
2019-03-27T05:19:44.059Z,52.20
2019-03-27T05:22:41.222Z,52.13
2019-03-27T05:25:37.032Z,47.83
2019-03-27T05:28:34.187Z,50.00
2019-03-27T05:31:31.016Z,53.92
2019-03-27T05:34:28.391Z,47.93
2019-03-27T05:37:25.539Z,52.60
2019-03-27T05:40:22.214Z,49.50
2019-03-27T05:43:19.334Z,53.80
2019-03-27T05:46:17.218Z,52.80
2019-03-27T05:49:14.567Z,49.38
2019-03-27T05:52:10.480Z,48.93
2019-03-27T05:55:07.650Z,54.60
2019-03-27T05:58:05.983Z,57.30
2019-03-27T06:01:03.035Z,55.03
2019-03-27T06:04:00.105Z,55.00
2019-03-27T06:07:00.156Z,52.03
2019-03-27T06:09:56.238Z,52.73
2019-03-27T06:12:53.692Z,51.60
2019-03-27T06:15:49.997Z,42.13
2019-03-27T06:18:47.343Z,48.17
2019-03-27T06:21:43.735Z,47.00
2019-03-27T06:24:40.948Z,52.70
2019-03-27T06:27:37.900Z,54.03
2019-03-27T06:30:34.927Z,52.03
2019-03-27T06:33:31.870Z,61.83
2019-03-27T06:36:27.940Z,53.58
2019-03-27T06:39:25.369Z,53.23
2019-03-27T06:42:26.686Z,54.93
2019-03-27T06:45:24.065Z,48.30
2019-03-27T06:48:26.347Z,54.17
2019-03-27T06:51:18.475Z,50.03
2019-03-27T06:54:14.584Z,54.33
2019-03-27T06:57:12.679Z,56.45
2019-03-27T07:00:08.508Z,51.70
2019-03-27T07:03:05.228Z,58.23
2019-03-27T07:06:02.533Z,51.42
2019-03-27T07:09:01.607Z,59.03
2019-03-27T07:11:58.870Z,49.43
2019-03-27T07:14:56.230Z,55.47
2019-03-27T07:17:54.544Z,57.60
2019-03-27T07:20:52.850Z,54.80
2019-03-27T07:23:48.700Z,50.50
2019-03-27T07:26:45.794Z,62.43
2019-03-27T07:29:42.026Z,56.97
2019-03-27T07:32:39.209Z,54.87
2019-03-27T07:35:35.467Z,58.50
2019-03-27T07:38:32.910Z,53.77
2019-03-27T07:41:30.158Z,53.47
2019-03-27T07:44:26.004Z,52.93
2019-03-27T07:47:23.002Z,55.40
2019-03-27T07:50:20.143Z,60.57
2019-03-27T07:53:16.385Z,58.33
2019-03-27T07:56:13.551Z,59.23
2019-03-27T07:59:10.929Z,57.50
2019-03-27T08:02:08.459Z,57.20
2019-03-27T08:05:04.321Z,78.93
2019-03-27T08:08:02.382Z,72.33
2019-03-27T08:10:59.768Z,53.70
2019-03-27T08:13:57.112Z,54.50
2019-03-27T08:16:53.448Z,54.27
2019-03-27T08:19:51.005Z,56.83
2019-03-27T08:22:49.402Z,60.13
2019-03-27T08:25:44.868Z,57.50
2019-03-27T08:28:42.764Z,55.43
2019-03-27T08:31:38.586Z,59.83
2019-03-27T08:34:35.509Z,65.30
2019-03-27T08:37:31.870Z,58.67
2019-03-27T08:40:30.013Z,55.47
2019-03-27T08:43:28.078Z,58.07
2019-03-27T08:46:24.148Z,53.00
2019-03-27T08:49:22.699Z,57.40
2019-03-27T08:52:18.557Z,53.10
2019-03-27T08:55:15.765Z,54.27
2019-03-27T08:58:11.986Z,59.47
2019-03-27T09:01:11.637Z,58.10
2019-03-27T09:04:07.586Z,57.17
2019-03-27T09:07:04.369Z,55.50
2019-03-27T09:10:02.526Z,54.07
2019-03-27T09:12:58.909Z,54.47
2019-03-27T09:15:55.184Z,55.33
2019-03-27T09:18:52.419Z,55.30
2019-03-27T09:21:49.442Z,55.33
2019-03-27T09:24:46.640Z,56.80
2019-03-27T09:27:41.828Z,67.07
2019-03-27T09:30:39.514Z,53.43
2019-03-27T09:33:36.555Z,64.23
2019-03-27T09:36:32.544Z,57.17
2019-03-27T09:39:32.215Z,62.67
2019-03-27T09:42:28.572Z,60.30
2019-03-27T09:45:25.806Z,56.00
2019-03-27T09:48:21.912Z,57.27
2019-03-27T09:51:19.663Z,85.97
2019-03-27T09:54:16.072Z,54.87
2019-03-27T09:57:13.130Z,54.17
2019-03-27T10:00:11.176Z,55.33
2019-03-27T10:03:08.087Z,61.67
2019-03-27T10:06:05.223Z,54.00
2019-03-27T10:09:02.292Z,54.93
2019-03-27T10:11:59.631Z,54.63
2019-03-27T10:14:57.031Z,56.77
2019-03-27T10:17:53.984Z,56.53
2019-03-27T10:20:51.578Z,56.63
2019-03-27T10:23:47.874Z,58.00
2019-03-27T10:26:44.854Z,55.60
2019-03-27T10:29:40.456Z,62.43
2019-03-27T10:32:37.569Z,56.23
2019-03-27T10:35:33.806Z,61.03
2019-03-27T10:38:31.190Z,52.90
2019-03-27T10:41:29.284Z,60.83
2019-03-27T10:44:25.551Z,56.53
2019-03-27T10:47:22.876Z,54.07
2019-03-27T10:50:18.956Z,52.80
2019-03-27T10:53:16.338Z,53.08
2019-03-27T10:56:12.228Z,51.50
2019-03-27T10:59:09.625Z,53.43
2019-03-27T11:02:06.774Z,53.47
2019-03-27T11:05:04.235Z,60.90
2019-03-27T11:08:00.316Z,69.40
2019-03-27T11:10:58.385Z,54.30
2019-03-27T11:13:55.546Z,58.67
2019-03-27T11:16:53.753Z,57.50
2019-03-27T11:19:50.485Z,56.90
2019-03-27T11:22:45.932Z,58.67
2019-03-27T11:25:43.036Z,55.40
2019-03-27T11:28:40.301Z,54.33
2019-03-27T11:31:39.684Z,62.83
2019-03-27T11:34:35.632Z,56.93
2019-03-27T11:37:32.710Z,57.97
2019-03-27T11:40:28.802Z,59.70
2019-03-27T11:43:25.840Z,57.23
2019-03-27T11:46:23.109Z,57.93
2019-03-27T11:49:19.204Z,55.27
2019-03-27T11:52:16.815Z,57.77
2019-03-27T11:55:12.717Z,55.27
2019-03-27T11:58:10.084Z,55.27
2019-03-27T12:01:06.313Z,55.30
2019-03-27T12:04:03.409Z,57.67
2019-03-27T12:06:59.717Z,56.50
2019-03-27T12:09:59.022Z,56.53
2019-03-27T12:12:55.120Z,55.87
2019-03-27T12:15:59.877Z,54.17
2019-03-27T12:18:58.060Z,54.77
2019-03-27T12:21:56.096Z,53.70
2019-03-27T12:24:53.183Z,54.17
2019-03-27T12:27:50.346Z,53.90
2019-03-27T12:30:48.919Z,58.33
2019-03-27T12:33:45.925Z,55.40
2019-03-27T12:36:42.871Z,54.47
2019-03-27T12:39:40.922Z,56.17
2019-03-27T12:42:37.757Z,52.67
2019-03-27T12:45:35.064Z,53.20
2019-03-27T12:48:31.073Z,52.27
2019-03-27T12:51:28.431Z,53.17
2019-03-27T12:54:24.437Z,54.07
2019-03-27T12:57:21.482Z,56.97
2019-03-27T13:00:17.153Z,53.40
2019-03-27T13:03:14.789Z,56.87
2019-03-27T13:06:13.102Z,59.67
2019-03-27T13:09:08.921Z,53.17
2019-03-27T13:12:08.209Z,64.00
2019-03-27T13:15:04.252Z,59.73
2019-03-27T13:18:01.131Z,50.37
2019-03-27T13:20:58.288Z,52.40
2019-03-27T13:23:54.552Z,53.17
2019-03-27T13:26:51.802Z,53.35
2019-03-27T13:29:48.852Z,51.00
2019-03-27T13:32:45.889Z,50.47
2019-03-27T13:35:43.026Z,50.10
2019-03-27T13:38:39.048Z,50.80
2019-03-27T13:41:36.093Z,51.13
2019-03-27T13:44:37.358Z,52.13
2019-03-27T13:47:31.232Z,54.50
2019-03-27T13:50:27.392Z,49.73
2019-03-27T13:53:24.647Z,51.13
2019-03-27T13:56:20.181Z,50.70
2019-03-27T13:59:17.453Z,49.27
2019-03-27T14:02:13.152Z,50.70
2019-03-27T14:05:10.416Z,48.93
2019-03-27T14:08:06.592Z,48.75
2019-03-27T14:11:04.692Z,50.43
2019-03-27T14:14:10.690Z,55.00
2019-03-27T14:16:57.470Z,50.00
2019-03-27T14:19:52.870Z,50.77
2019-03-27T14:22:50.067Z,48.60
2019-03-27T14:25:47.404Z,50.77
2019-03-27T14:28:43.537Z,49.27
2019-03-27T14:31:40.779Z,52.07
2019-03-27T14:34:36.847Z,52.20
2019-03-27T14:37:35.281Z,50.50
2019-03-27T14:40:31.355Z,50.33
2019-03-27T14:43:28.670Z,48.10
2019-03-27T14:46:25.407Z,51.75
2019-03-27T14:49:22.571Z,51.47
2019-03-27T14:52:19.695Z,50.97
2019-03-27T14:55:15.847Z,52.53
2019-03-27T14:58:13.726Z,48.60
2019-03-27T15:01:11.053Z,50.17
2019-03-27T15:04:09.270Z,46.60
2019-03-27T15:07:05.418Z,48.03
2019-03-27T15:10:02.476Z,49.63
2019-03-27T15:12:59.401Z,46.50
2019-03-27T15:15:57.330Z,48.13
2019-03-27T15:18:52.704Z,46.90
2019-03-27T15:21:49.227Z,48.13
2019-03-27T15:24:47.268Z,47.07
2019-03-27T15:27:44.386Z,49.23
2019-03-27T15:30:41.681Z,47.62
2019-03-27T15:33:38.942Z,49.63
2019-03-27T15:36:35.901Z,48.08
2019-03-27T15:39:32.217Z,48.78
2019-03-27T15:42:29.394Z,46.77
2019-03-27T15:45:27.669Z,47.05
2019-03-27T15:48:22.670Z,47.80
2019-03-27T15:51:19.830Z,48.70
2019-03-27T15:54:15.873Z,47.90
2019-03-27T15:57:14.316Z,46.77
2019-03-27T16:00:10.424Z,48.40
2019-03-27T16:03:07.476Z,46.07
2019-03-27T16:06:04.584Z,48.17
2019-03-27T16:09:01.969Z,45.43
2019-03-27T16:11:59.089Z,50.50
2019-03-27T16:14:56.805Z,51.83
2019-03-27T16:17:53.926Z,49.40
2019-03-27T16:20:49.988Z,46.33
2019-03-27T16:23:47.040Z,49.53
2019-03-27T16:26:44.106Z,46.40
2019-03-27T16:29:42.315Z,46.57
2019-03-27T16:32:38.073Z,47.20
2019-03-27T16:35:36.043Z,48.37
2019-03-27T16:38:33.050Z,49.90
2019-03-27T16:41:28.437Z,47.80
2019-03-27T16:44:26.487Z,47.90
2019-03-27T16:47:22.679Z,49.83
2019-03-27T16:50:19.819Z,49.13
2019-03-27T16:53:16.111Z,50.40
2019-03-27T16:56:14.663Z,48.30
2019-03-27T16:59:10.664Z,49.00
2019-03-27T17:02:07.902Z,54.13
2019-03-27T17:05:05.081Z,48.98
2019-03-27T17:08:01.314Z,52.47
2019-03-27T17:10:59.138Z,51.80
2019-03-27T17:13:55.416Z,47.47
2019-03-27T17:16:53.110Z,48.40
2019-03-27T17:19:49.231Z,56.03
2019-03-27T17:22:46.347Z,49.50
2019-03-27T17:25:43.458Z,50.33
2019-03-27T17:28:40.965Z,50.17
2019-03-27T17:31:38.123Z,50.77
2019-03-27T17:34:34.155Z,50.70
2019-03-27T17:37:33.960Z,53.30
2019-03-27T17:40:30.368Z,46.93
2019-03-27T17:43:27.441Z,46.40
2019-03-27T17:46:24.492Z,48.55
2019-03-27T17:49:21.881Z,53.20
2019-03-27T17:52:17.839Z,47.97
2019-03-27T17:55:14.924Z,47.23
2019-03-27T17:58:11.849Z,45.43
2019-03-27T18:01:09.334Z,50.03
2019-03-27T18:04:07.769Z,52.40
2019-03-27T18:07:05.083Z,53.50
2019-03-27T18:10:02.371Z,54.60
2019-03-27T18:13:03.141Z,48.47
2019-03-27T18:16:00.458Z,47.87
2019-03-27T18:19:01.307Z,48.70
2019-03-27T18:22:07.524Z,47.20
2019-03-27T18:24:59.817Z,48.08
2019-03-27T18:27:58.609Z,50.37
2019-03-27T18:30:55.219Z,48.93
2019-03-27T18:33:52.458Z,50.40
2019-03-27T18:36:49.003Z,47.43
2019-03-27T18:39:45.475Z,47.87
2019-03-27T18:42:42.932Z,47.20
2019-03-27T18:45:40.225Z,47.10
2019-03-27T18:48:38.560Z,46.83
2019-03-27T18:51:36.035Z,45.27
2019-03-27T18:54:33.818Z,43.97
2019-03-27T18:57:36.466Z,47.17
2019-03-27T19:00:32.978Z,47.23
2019-03-27T19:03:36.215Z,47.90
2019-03-27T19:06:27.518Z,44.90
2019-03-27T19:09:24.745Z,44.30
2019-03-27T19:12:23.342Z,43.07
2019-03-27T19:15:19.303Z,47.23
2019-03-27T19:18:16.833Z,45.67
2019-03-27T19:21:17.342Z,43.28
2019-03-27T19:24:16.817Z,47.00
2019-03-27T19:27:10.819Z,46.73
2019-03-27T19:30:08.245Z,43.97
2019-03-27T19:33:06.799Z,43.03
2019-03-27T19:36:02.998Z,46.00
2019-03-27T19:39:05.091Z,46.07
2019-03-27T19:42:02.728Z,44.65
2019-03-27T19:45:03.954Z,44.00
2019-03-27T19:48:09.447Z,45.70
2019-03-27T19:51:06.578Z,45.03
2019-03-27T19:54:06.824Z,44.73
2019-03-27T19:57:05.608Z,45.20
2019-03-27T20:00:03.069Z,51.10
2019-03-27T20:03:06.906Z,53.10
2019-03-27T20:06:16.261Z,55.47
2019-03-27T20:09:22.281Z,49.30
2019-03-27T20:12:18.324Z,47.57
2019-03-27T20:15:41.974Z,44.80
2019-03-27T20:18:34.753Z,45.20
2019-03-27T20:21:32.231Z,44.80
2019-03-27T20:24:40.378Z,43.50
2019-03-27T20:27:25.665Z,44.77
2019-03-27T20:30:26.981Z,43.20
2019-03-27T20:33:29.297Z,43.73
2019-03-27T20:36:27.720Z,42.20
2019-03-27T20:39:24.354Z,42.73
2019-03-27T20:42:20.828Z,39.70
2019-03-27T20:45:22.815Z,43.60
2019-03-27T20:48:19.794Z,43.37
2019-03-27T20:51:24.558Z,43.73
2019-03-27T20:54:23.739Z,45.30
2019-03-27T20:57:20.916Z,39.77
2019-03-27T21:00:18.321Z,42.53
2019-03-27T21:03:15.899Z,42.43
2019-03-27T21:06:12.413Z,44.43
2019-03-27T21:09:10.772Z,46.73
2019-03-27T21:12:12.994Z,41.30
2019-03-27T21:15:09.329Z,43.90
2019-03-27T21:18:06.785Z,45.38
2019-03-27T21:21:04.148Z,43.52
2019-03-27T21:24:02.947Z,41.53
2019-03-27T21:26:59.584Z,41.50
2019-03-27T21:29:58.904Z,43.43
2019-03-27T21:32:55.483Z,40.63
2019-03-27T21:35:59.416Z,45.33
2019-03-27T21:38:56.077Z,40.37
2019-03-27T21:41:53.370Z,41.17
2019-03-27T21:44:50.655Z,43.00
2019-03-27T21:47:47.094Z,43.95
2019-03-27T21:50:45.465Z,41.30
2019-03-27T21:53:42.835Z,44.73
2019-03-27T21:56:39.241Z,45.83
2019-03-27T21:59:37.741Z,41.20
2019-03-27T22:02:34.103Z,46.30
2019-03-27T22:05:32.127Z,44.77
2019-03-27T22:08:28.299Z,43.13
2019-03-27T22:11:26.751Z,44.10
2019-03-27T22:14:23.018Z,37.63
2019-03-27T22:17:20.416Z,44.50
2019-03-27T22:20:18.609Z,42.07
2019-03-27T22:23:15.006Z,40.95
2019-03-27T22:26:11.632Z,38.53
2019-03-27T22:29:07.885Z,40.37
2019-03-27T22:32:06.934Z,38.23
2019-03-27T22:35:02.328Z,37.20
2019-03-27T22:38:00.166Z,39.70
2019-03-27T22:40:56.270Z,36.23
2019-03-27T22:43:53.527Z,40.47
2019-03-27T22:46:50.696Z,46.02
2019-03-27T22:49:47.032Z,34.30
2019-03-27T22:52:44.415Z,38.27
2019-03-27T22:55:49.910Z,41.63
2019-03-27T22:58:37.968Z,38.88
2019-03-27T23:01:36.258Z,40.83
2019-03-27T23:04:33.434Z,41.70
2019-03-27T23:07:30.673Z,39.10
2019-03-27T23:10:27.715Z,36.13
2019-03-27T23:13:26.309Z,36.03
2019-03-27T23:16:22.436Z,35.70
2019-03-27T23:19:19.486Z,39.90
2019-03-27T23:22:16.640Z,34.40
2019-03-27T23:25:14.625Z,37.38
2019-03-27T23:28:11.245Z,39.13
2019-03-27T23:31:08.883Z,33.33
2019-03-27T23:34:06.083Z,37.40
2019-03-27T23:37:02.561Z,37.27
2019-03-27T23:40:00.468Z,39.03
2019-03-27T23:42:57.444Z,39.33
2019-03-27T23:45:54.790Z,35.93
2019-03-27T23:48:52.151Z,36.88
2019-03-27T23:51:50.434Z,38.53
2019-03-27T23:54:47.765Z,38.73
2019-03-27T23:57:43.623Z,36.43
